Other Surface Observations
Issued by NWS Great Falls, MT

Home | Current Version | Previous Version | Text Only | Print | Product List | Glossary On
Versions: 1 2 3 4 5 6 7 8 9 10 11 12 13 14 15 16 17 18 19 20 21 22 23 24 25 26 27 28 29 30 31 32 33 34 35 36 37 38 39 40 41 42 43 44 45 46 47 48 49 50
000
SXUS55 KTFX 270444
OSOTFX
AREA AWOS OBSERVATIONS
NATIONAL WEATHER SERVICE GREAT FALLS MT
0944 PM MST SUN FEB 26 2017

METAR KPWD 270445Z AUTO 28003KT 7SM M11/M13 A2979 RMK PLENTYWOOD
METAR KPO1 270445Z AUTO 00000KT 10SM M11/M12 A2983 RMK POPLAR
METAR K1S3 270445Z AUTO 06010KT 10SM M04/M07 A2972 RMK FORSYTH
METAR KS71 270445Z AUTO 01005KT 4SM M08/M09 A2980 RMK CHINOOK
METAR K79S 270445Z AUTO 4SM M07/M09 A2977 RMK FORT BENTON
METAR K38S 270445Z AUTO 19004KT 10SM M04/M08 A2957 RMK DEER LODGE
METAR K3U3 270445Z AUTO 16008KT 5SM M06/M08 A2954 RMK ANACONDA
METAR K6S5 270445Z AUTO 00000KT 10SM M03/M05 A2958 RMK HAMILTON
METAR KS59 270445Z AUTO 00000KT 5SM M04/M05 A2964 RMK LIBBY
METAR K88M 270445Z AUTO 11004KT 10SM M07/M09 A2968 RMK EUREKA



USA.gov is the U.S. government's official web portal to all federal, state and local government web resources and services.